Time;durP1;ratioP1;P1;durP2;ratioP2;P2;SDS_P1;SDS_P2;PMS_P1;PMS_P2;Temp;Humidity;BMP_temperature;BMP_pressure;BME280_temperature;BME280_humidity;BME280_pressure;Samples;Min_cycle;Max_cycle;Signal;HPM_P1;HPM_P2
2023/08/03 00:00:18;;;;;;;3.72;1.30;;;18.30;99.90;;;;;;5113198;28;20031;-71
2023/08/03 00:02:46;;;;;;;4.15;1.45;;;18.30;99.90;;;;;;5112278;28;20024;-71
2023/08/03 00:05:13;;;;;;;7.18;1.52;;;18.40;99.90;;;;;;5113565;28;20111;-71
2023/08/03 00:07:38;;;;;;;3.35;1.30;;;18.30;99.90;;;;;;5113116;28;20282;-71
2023/08/03 00:10:04;;;;;;;3.63;1.25;;;18.30;99.90;;;;;;5111615;28;20450;-72
2023/08/03 00:12:30;;;;;;;3.92;1.40;;;18.30;99.90;;;;;;5112914;28;20026;-72
2023/08/03 00:14:56;;;;;;;1.88;1.10;;;18.40;99.90;;;;;;5102972;28;20114;-72
2023/08/03 00:17:22;;;;;;;3.20;1.30;;;18.30;99.90;;;;;;5093056;28;20095;-71
2023/08/03 00:19:48;;;;;;;2.72;1.63;;;18.40;99.90;;;;;;5092460;28;20016;-70
2023/08/03 00:22:13;;;;;;;3.15;1.20;;;18.30;99.90;;;;;;5092515;28;20067;-71
2023/08/03 00:24:39;;;;;;;4.03;1.67;;;18.40;99.90;;;;;;5092659;28;20517;-71
2023/08/03 00:27:05;;;;;;;5.05;1.23;;;18.40;99.90;;;;;;5091527;28;20383;-71
2023/08/03 00:29:31;;;;;;;2.30;1.30;;;18.30;99.90;;;;;;5092679;28;20021;-69
2023/08/03 00:31:56;;;;;;;4.65;1.73;;;18.40;99.90;;;;;;5092042;28;20089;-70
2023/08/03 00:34:22;;;;;;;3.40;1.50;;;18.40;99.90;;;;;;5092795;28;20400;-70
2023/08/03 00:36:48;;;;;;;2.38;1.98;;;18.40;99.90;;;;;;5092069;28;20070;-70
2023/08/03 00:39:13;;;;;;;3.72;2.00;;;18.50;99.90;;;;;;5092286;28;20052;-71
2023/08/03 00:41:39;;;;;;;9.05;2.00;;;18.40;99.90;;;;;;5092363;28;20111;-71
2023/08/03 00:44:05;;;;;;;5.63;2.10;;;18.50;99.90;;;;;;5092459;28;20535;-70
2023/08/03 00:46:31;;;;;;;8.52;2.00;;;18.50;99.90;;;;;;5091354;28;20024;-69
2023/08/03 00:48:57;;;;;;;6.00;2.47;;;18.50;99.90;;;;;;5092012;28;20020;-71
2023/08/03 00:51:23;;;;;;;5.43;2.10;;;18.50;99.90;;;;;;5090885;28;20019;-70
2023/08/03 00:53:49;;;;;;;4.90;2.08;;;18.50;99.90;;;;;;5101685;28;20034;-71
2023/08/03 00:56:16;;;;;;;6.78;2.50;;;18.50;99.90;;;;;;5112581;28;20020;-70
2023/08/03 00:58:42;;;;;;;7.38;2.33;;;18.60;99.90;;;;;;5110453;28;20383;-70
2023/08/03 01:01:08;;;;;;;5.15;1.90;;;18.50;99.90;;;;;;5111507;28;20026;-71
2023/08/03 01:03:34;;;;;;;6.90;2.20;;;18.50;99.90;;;;;;5111671;28;20040;-71
2023/08/03 01:05:59;;;;;;;6.53;2.50;;;18.60;99.90;;;;;;5105195;28;20023;-70
2023/08/03 01:08:25;;;;;;;9.45;2.47;;;18.50;99.90;;;;;;5092201;28;20392;-70
2023/08/03 01:10:52;;;;;;;8.35;2.42;;;18.50;99.90;;;;;;5091779;28;20057;-71
2023/08/03 01:13:19;;;;;;;6.78;2.30;;;18.50;99.90;;;;;;5103871;28;20035;-70
2023/08/03 01:15:45;;;;;;;5.00;2.28;;;18.50;99.90;;;;;;5094730;28;20016;-70
2023/08/03 01:18:11;;;;;;;7.20;3.00;;;18.50;99.90;;;;;;5105184;28;20032;-70
2023/08/03 01:20:39;;;;;;;7.22;2.25;;;18.50;99.90;;;;;;5097265;28;20411;-70
2023/08/03 01:23:05;;;;;;;7.03;2.47;;;18.50;99.90;;;;;;5091855;28;20472;-72
2023/08/03 01:25:32;;;;;;;6.57;2.28;;;18.50;99.90;;;;;;5091551;28;20095;-72
2023/08/03 01:27:57;;;;;;;9.23;3.17;;;18.60;99.90;;;;;;5091663;28;20051;-71
2023/08/03 01:30:23;;;;;;;8.35;2.75;;;18.50;99.90;;;;;;5097503;28;20055;-71
2023/08/03 01:32:49;;;;;;;9.02;3.25;;;18.50;99.90;;;;;;5111650;28;20028;-72
2023/08/03 01:35:15;;;;;;;12.82;3.40;;;18.50;99.90;;;;;;5111772;28;20041;-72
2023/08/03 01:37:41;;;;;;;13.30;3.58;;;18.50;99.90;;;;;;5111137;28;20114;-72
2023/08/03 01:40:10;;;;;;;8.63;2.88;;;18.40;99.90;;;;;;5112133;28;20420;-72
2023/08/03 01:42:36;;;;;;;13.15;4.85;;;18.30;99.90;;;;;;5112155;28;20072;-71
2023/08/03 01:45:02;;;;;;;11.68;3.30;;;18.40;99.90;;;;;;5111818;28;20020;-72
2023/08/03 01:47:28;;;;;;;12.13;3.67;;;18.40;99.90;;;;;;5112219;28;20024;-72
2023/08/03 01:49:53;;;;;;;10.93;3.85;;;18.40;99.90;;;;;;5112047;28;20047;-72
2023/08/03 01:52:19;;;;;;;14.98;3.97;;;18.40;99.90;;;;;;5109026;28;20036;-72
2023/08/03 01:54:45;;;;;;;13.63;4.18;;;18.40;99.90;;;;;;5100959;28;20054;-71
2023/08/03 01:57:11;;;;;;;12.75;3.90;;;18.40;99.90;;;;;;5092042;28;20032;-71
2023/08/03 01:59:36;;;;;;;11.00;4.40;;;18.40;99.90;;;;;;5091343;28;20555;-70
2023/08/03 02:02:05;;;;;;;15.73;4.30;;;18.40;99.90;;;;;;5091377;28;20419;-70
2023/08/03 02:04:30;;;;;;;14.02;4.10;;;18.40;99.90;;;;;;5091656;28;20055;-70
2023/08/03 02:07:01;;;;;;;16.35;4.57;;;18.50;99.90;;;;;;5091339;28;20538;-71
2023/08/03 02:09:26;;;;;;;17.73;4.45;;;18.40;99.90;;;;;;5090969;28;20028;-69
2023/08/03 02:11:52;;;;;;;13.35;3.60;;;18.50;99.90;;;;;;5092029;28;20107;-71
2023/08/03 02:14:18;;;;;;;19.77;4.40;;;18.50;99.90;;;;;;5111958;28;20470;-71
2023/08/03 02:16:43;;;;;;;16.85;4.13;;;18.40;99.90;;;;;;5111730;28;20035;-70
2023/08/03 02:19:09;;;;;;;15.27;4.28;;;18.40;99.90;;;;;;5111327;28;20388;-70
2023/08/03 02:21:36;;;;;;;19.52;4.32;;;18.40;99.90;;;;;;5111989;28;20472;-71
2023/08/03 02:24:01;;;;;;;10.52;3.45;;;18.30;99.90;;;;;;5110640;28;20015;-71
2023/08/03 02:26:27;;;;;;;14.80;3.47;;;18.30;99.90;;;;;;5111959;28;20027;-70
2023/08/03 02:28:53;;;;;;;14.70;3.95;;;18.30;99.90;;;;;;5111920;28;20020;-70
2023/08/03 02:31:19;;;;;;;13.93;3.83;;;18.30;99.90;;;;;;5111539;28;20110;-70
2023/08/03 02:33:45;;;;;;;12.95;3.38;;;18.20;99.90;;;;;;5111756;28;20107;-70
2023/08/03 02:36:10;;;;;;;15.07;3.70;;;18.30;99.90;;;;;;5112685;28;20553;-70
2023/08/03 02:38:36;;;;;;;14.77;3.63;;;18.30;99.90;;;;;;5115636;28;20023;-70
2023/08/03 02:41:02;;;;;;;14.23;4.05;;;18.20;99.90;;;;;;5114174;28;20027;-71
2023/08/03 02:43:27;;;;;;;8.05;3.63;;;18.20;99.90;;;;;;5115341;28;20389;-70
2023/08/03 02:45:53;;;;;;;13.20;3.70;;;18.30;99.90;;;;;;5115111;28;20047;-71
2023/08/03 02:48:19;;;;;;;12.18;4.00;;;18.20;99.90;;;;;;5114945;28;20031;-70
2023/08/03 02:50:45;;;;;;;11.95;3.40;;;18.30;99.90;;;;;;5113976;28;20034;-70
2023/08/03 02:53:11;;;;;;;10.68;2.95;;;18.30;99.90;;;;;;5114757;28;20023;-70
2023/08/03 02:55:36;;;;;;;14.00;3.92;;;18.20;99.90;;;;;;5114767;28;20613;-70
2023/08/03 02:58:02;;;;;;;10.57;3.58;;;18.30;99.90;;;;;;5115309;28;20272;-70
2023/08/03 03:00:28;;;;;;;14.20;3.67;;;18.30;99.90;;;;;;5114807;28;20055;-71
2023/08/03 03:02:54;;;;;;;16.48;4.15;;;18.30;99.90;;;;;;5114824;28;20032;-71
2023/08/03 03:05:19;;;;;;;11.30;3.70;;;18.30;99.90;;;;;;5114906;28;20027;-71
2023/08/03 03:07:45;;;;;;;17.90;4.80;;;18.20;99.90;;;;;;5113913;28;20024;-72
2023/08/03 03:10:13;;;;;;;15.55;4.22;;;18.30;99.90;;;;;;5115044;28;20352;-71
2023/08/03 03:12:39;;;;;;;10.98;2.80;;;18.20;99.90;;;;;;5113584;28;20110;-71
2023/08/03 03:15:05;;;;;;;10.32;3.13;;;18.20;99.90;;;;;;5114812;28;20020;-71
2023/08/03 03:17:31;;;;;;;13.80;3.75;;;18.10;99.90;;;;;;5114349;28;20030;-71
2023/08/03 03:19:57;;;;;;;11.15;3.25;;;18.20;99.90;;;;;;5114810;28;20031;-71
2023/08/03 03:22:22;;;;;;;15.70;3.90;;;18.20;99.90;;;;;;5114520;28;20030;-71
2023/08/03 03:24:48;;;;;;;11.88;3.70;;;18.20;99.90;;;;;;5113237;28;20403;-70
2023/08/03 03:27:14;;;;;;;10.13;3.20;;;18.20;99.90;;;;;;5114835;28;20028;-70
2023/08/03 03:29:39;;;;;;;10.27;2.90;;;18.20;99.90;;;;;;5114323;28;20460;-70
2023/08/03 03:32:05;;;;;;;9.52;3.40;;;18.20;99.90;;;;;;5114136;28;20428;-70
2023/08/03 03:34:31;;;;;;;10.48;3.65;;;18.20;99.90;;;;;;5114442;28;20042;-72
2023/08/03 03:36:56;;;;;;;14.05;3.97;;;18.20;99.90;;;;;;5114309;28;20059;-72
2023/08/03 03:39:22;;;;;;;11.93;3.72;;;18.30;99.90;;;;;;5113948;28;20043;-72
2023/08/03 03:41:48;;;;;;;10.23;3.30;;;18.20;99.90;;;;;;5114326;28;20369;-72
2023/08/03 03:44:13;;;;;;;9.25;3.03;;;18.30;99.90;;;;;;5114380;28;20517;-72
2023/08/03 03:46:39;;;;;;;10.30;3.33;;;18.30;99.90;;;;;;5113646;28;20395;-72
2023/08/03 03:49:05;;;;;;;11.60;3.08;;;18.30;99.90;;;;;;5114059;28;20655;-72
2023/08/03 03:51:30;;;;;;;12.20;3.33;;;18.20;99.90;;;;;;5114026;28;20388;-71
2023/08/03 03:53:56;;;;;;;9.02;3.42;;;18.20;99.90;;;;;;5113902;28;20046;-71
2023/08/03 03:56:21;;;;;;;8.07;3.28;;;18.20;99.90;;;;;;5114085;28;20463;-71
2023/08/03 03:58:47;;;;;;;13.00;3.03;;;18.30;99.90;;;;;;5113644;28;20103;-72
2023/08/03 04:01:13;;;;;;;7.40;3.08;;;18.30;99.90;;;;;;5112909;28;20027;-70
2023/08/03 04:03:38;;;;;;;10.98;3.22;;;18.30;99.90;;;;;;5113669;28;20479;-71
2023/08/03 04:06:04;;;;;;;7.40;2.95;;;18.30;99.90;;;;;;5113602;28;20019;-71
2023/08/03 04:08:30;;;;;;;9.57;3.05;;;18.30;99.90;;;;;;5113678;28;20429;-71
2023/08/03 04:10:55;;;;;;;12.95;3.38;;;18.30;99.90;;;;;;5113599;28;20043;-71
2023/08/03 04:13:21;;;;;;;14.25;3.15;;;18.30;99.90;;;;;;5113139;28;20046;-70
2023/08/03 04:15:47;;;;;;;8.73;3.45;;;18.30;99.90;;;;;;5113892;28;20042;-70
2023/08/03 04:18:12;;;;;;;7.35;2.90;;;18.30;99.90;;;;;;5112997;28;20573;-70
2023/08/03 04:20:38;;;;;;;8.20;2.72;;;18.20;99.90;;;;;;5113169;28;20691;-72
2023/08/03 04:23:05;;;;;;;11.32;2.92;;;18.30;99.90;;;;;;5112963;28;20032;-72
2023/08/03 04:25:30;;;;;;;10.23;2.50;;;18.20;99.90;;;;;;5113100;28;20022;-72
2023/08/03 04:27:56;;;;;;;11.85;3.28;;;18.20;99.90;;;;;;5113188;28;20023;-72
2023/08/03 04:30:21;;;;;;;10.75;3.33;;;18.20;99.90;;;;;;5111956;28;20379;-71
2023/08/03 04:32:47;;;;;;;8.48;3.00;;;18.30;99.90;;;;;;5113145;28;20119;-72
2023/08/03 04:35:14;;;;;;;5.72;3.08;;;18.20;99.90;;;;;;5113447;28;20448;-72
2023/08/03 04:37:40;;;;;;;12.88;3.08;;;18.20;99.90;;;;;;5113288;28;20030;-72
2023/08/03 04:40:06;;;;;;;9.23;3.35;;;18.10;99.90;;;;;;5113112;28;20024;-72
2023/08/03 04:42:32;;;;;;;9.05;3.50;;;18.20;99.90;;;;;;5112850;28;20122;-72
2023/08/03 04:44:57;;;;;;;9.85;3.05;;;18.20;99.90;;;;;;5111488;28;20488;-72
2023/08/03 04:47:23;;;;;;;10.98;3.67;;;18.10;99.90;;;;;;5112702;28;20032;-72
2023/08/03 04:49:49;;;;;;;9.40;4.07;;;18.10;99.90;;;;;;5113052;28;20584;-72
2023/08/03 04:52:14;;;;;;;10.68;3.38;;;18.20;99.90;;;;;;5112999;28;20027;-71
2023/08/03 04:54:40;;;;;;;10.45;4.10;;;18.00;99.90;;;;;;5111784;28;20055;-72
2023/08/03 04:57:06;;;;;;;8.98;3.30;;;18.10;99.90;;;;;;5112818;28;20550;-71
2023/08/03 04:59:32;;;;;;;9.77;3.22;;;18.10;99.90;;;;;;5111874;28;20518;-72
2023/08/03 05:01:58;;;;;;;7.65;3.42;;;18.20;99.90;;;;;;5112612;28;20585;-71
2023/08/03 05:04:23;;;;;;;8.35;3.75;;;18.20;99.90;;;;;;5112796;28;20028;-71
2023/08/03 05:06:49;;;;;;;11.30;3.78;;;18.20;99.90;;;;;;5112725;28;20127;-72
2023/08/03 05:09:15;;;;;;;9.70;3.90;;;18.30;99.90;;;;;;5112156;28;20558;-71
2023/08/03 05:11:40;;;;;;;9.77;3.40;;;18.10;99.90;;;;;;5110789;28;20024;-72
2023/08/03 05:14:06;;;;;;;7.13;3.22;;;18.20;99.90;;;;;;5106150;27;20113;-72
2023/08/03 05:16:32;;;;;;;5.68;2.70;;;18.30;99.90;;;;;;5099921;28;20372;-71
2023/08/03 05:18:57;;;;;;;7.95;2.65;;;18.20;99.90;;;;;;5091273;28;20416;-68
2023/08/03 05:21:23;;;;;;;8.13;2.55;;;18.30;99.90;;;;;;5092188;28;20384;-71
2023/08/03 05:23:49;;;;;;;7.55;2.30;;;18.30;99.90;;;;;;5092047;28;20532;-72
2023/08/03 05:26:14;;;;;;;6.95;2.20;;;18.40;99.90;;;;;;5091300;28;20028;-73
2023/08/03 05:28:40;;;;;;;3.97;2.47;;;18.40;99.90;;;;;;5091840;28;20476;-72
2023/08/03 05:31:06;;;;;;;8.68;2.67;;;18.40;99.90;;;;;;5091881;28;20023;-72
2023/08/03 05:33:35;;;;;;;4.03;2.15;;;18.30;99.90;;;;;;5091859;28;20031;-72
2023/08/03 05:36:02;;;;;;;5.60;3.05;;;18.40;99.90;;;;;;5090671;28;20020;-73
2023/08/03 05:38:28;;;;;;;5.90;2.28;;;18.50;99.90;;;;;;5091844;28;20112;-72
2023/08/03 05:40:54;;;;;;;5.82;2.30;;;18.40;99.90;;;;;;5091566;28;20032;-71
2023/08/03 05:43:26;;;;;;;3.92;2.22;;;18.50;99.90;;;;;;5091750;28;20040;-71
2023/08/03 05:45:59;;;;;;;7.63;2.30;;;18.50;99.90;;;;;;5092197;28;20381;-71
2023/08/03 05:48:25;;;;;;;4.88;2.60;;;18.50;99.90;;;;;;5091240;28;20024;-70
2023/08/03 05:50:53;;;;;;;3.53;2.22;;;18.60;99.90;;;;;;5091629;28;20106;-70
2023/08/03 05:53:19;;;;;;;3.60;2.25;;;18.60;99.90;;;;;;5091960;28;20120;-71
2023/08/03 05:55:46;;;;;;;4.75;2.35;;;18.70;99.90;;;;;;5091481;28;20107;-70
2023/08/03 05:58:14;;;;;;;4.63;2.70;;;18.70;99.90;;;;;;5091182;28;20021;-70
2023/08/03 06:00:44;;;;;;;3.08;1.90;;;18.70;99.90;;;;;;5091052;28;20114;-70
2023/08/03 06:03:14;;;;;;;5.22;2.13;;;18.60;99.90;;;;;;5091443;28;20040;-72
2023/08/03 06:05:42;;;;;;;7.18;2.00;;;18.60;99.90;;;;;;5091237;28;20020;-71
2023/08/03 06:08:15;;;;;;;5.72;2.60;;;18.70;99.90;;;;;;5091590;28;20103;-71
2023/08/03 06:10:42;;;;;;;5.72;2.28;;;18.70;99.90;;;;;;5094214;28;20072;-71
2023/08/03 06:13:10;;;;;;;6.30;2.30;;;18.80;99.90;;;;;;5110817;28;20446;-70
2023/08/03 06:15:36;;;;;;;5.75;1.80;;;18.60;99.90;;;;;;5115317;28;20107;-71
2023/08/03 06:18:07;;;;;;;5.95;2.00;;;18.60;99.90;;;;;;5113851;28;20123;-71
2023/08/03 06:20:34;;;;;;;6.68;2.63;;;18.70;99.90;;;;;;5115145;28;20065;-71
2023/08/03 06:23:00;;;;;;;7.28;2.22;;;18.70;99.90;;;;;;5098731;28;20118;-71
2023/08/03 06:25:27;;;;;;;6.78;2.42;;;18.70;99.90;;;;;;5093616;28;20112;-71
2023/08/03 06:27:53;;;;;;;6.32;2.88;;;18.70;99.90;;;;;;5095327;28;20427;-71
2023/08/03 06:30:18;;;;;;;5.90;2.78;;;18.60;99.90;;;;;;5094688;28;20050;-71
2023/08/03 06:32:44;;;;;;;6.65;3.22;;;18.70;99.90;;;;;;5095021;28;20388;-71
2023/08/03 06:35:44;;;;;;;11.93;3.10;;;18.70;99.90;;;;;;5095021;28;20024;-71
2023/08/03 06:38:14;;;;;;;81.50;12.18;;;18.80;99.90;;;;;;5071785;28;20044;-70
2023/08/03 06:40:41;;;;;;;22.33;6.18;;;18.80;99.90;;;;;;5094551;28;20028;-71
2023/08/03 06:43:10;;;;;;;6.28;3.53;;;18.70;99.90;;;;;;5094888;28;20036;-71
2023/08/03 06:45:36;;;;;;;7.03;3.75;;;18.80;99.90;;;;;;5094454;28;20017;-71
2023/08/03 06:48:03;;;;;;;7.35;4.38;;;18.80;99.90;;;;;;5100485;28;20099;-71
2023/08/03 06:50:31;;;;;;;9.95;4.13;;;18.80;99.90;;;;;;5113090;28;20052;-70
2023/08/03 06:52:57;;;;;;;8.57;4.28;;;18.70;99.90;;;;;;5115052;28;20083;-71
2023/08/03 06:55:23;;;;;;;9.48;3.45;;;18.70;99.90;;;;;;5114295;28;20048;-70
2023/08/03 06:57:49;;;;;;;5.25;3.40;;;18.80;99.90;;;;;;5115005;28;20274;-69
2023/08/03 07:00:15;;;;;;;6.28;3.80;;;18.80;99.90;;;;;;5114343;28;20526;-69
2023/08/03 07:02:42;;;;;;;7.72;3.47;;;18.80;99.90;;;;;;5114650;28;20036;-70
2023/08/03 07:05:08;;;;;;;9.15;3.75;;;18.90;99.90;;;;;;5114569;28;20016;-69
2023/08/03 07:07:34;;;;;;;8.00;3.42;;;18.90;99.90;;;;;;5113587;28;20026;-70
2023/08/03 07:10:00;;;;;;;8.32;3.40;;;19.00;99.90;;;;;;5106384;28;20079;-72
2023/08/03 07:12:26;;;;;;;24.08;6.05;;;18.90;99.90;;;;;;5096100;28;20539;-69
2023/08/03 07:14:52;;;;;;;10.32;3.70;;;18.90;99.90;;;;;;5110237;28;20124;-70
2023/08/03 07:17:18;;;;;;;11.40;4.07;;;18.90;99.90;;;;;;5114191;28;20103;-71
2023/08/03 07:19:51;;;;;;;8.57;4.70;;;18.90;99.90;;;;;;5112773;28;20494;-71
2023/08/03 07:22:21;;;;;;;10.70;4.55;;;18.90;99.90;;;;;;5112139;28;20544;-72
2023/08/03 07:24:47;;;;;;;11.15;5.00;;;18.90;99.90;;;;;;5093821;28;20024;-72
2023/08/03 07:27:12;;;;;;;7.40;5.10;;;19.00;99.90;;;;;;5093695;28;20062;-72
2023/08/03 07:29:38;;;;;;;10.43;5.50;;;19.10;99.90;;;;;;5093608;28;20472;-70
2023/08/03 07:32:04;;;;;;;9.18;4.72;;;19.00;99.90;;;;;;5106304;28;20354;-72
2023/08/03 07:34:30;;;;;;;10.38;4.85;;;19.00;99.90;;;;;;5100097;28;20084;-72
2023/08/03 07:36:57;;;;;;;10.82;4.45;;;18.90;99.90;;;;;;5113998;28;20536;-71
2023/08/03 07:39:23;;;;;;;10.30;4.72;;;18.90;99.90;;;;;;5114165;28;20036;-70
2023/08/03 07:41:49;;;;;;;9.02;4.00;;;19.00;99.90;;;;;;5113564;28;20071;-71
2023/08/03 07:44:16;;;;;;;9.40;3.17;;;19.00;99.90;;;;;;5113486;28;20023;-72
2023/08/03 07:46:42;;;;;;;6.88;3.25;;;19.10;99.90;;;;;;5106270;28;20028;-71
2023/08/03 07:49:08;;;;;;;7.30;2.90;;;19.10;99.90;;;;;;5109948;28;20034;-73
2023/08/03 07:51:34;;;;;;;8.07;2.50;;;19.10;99.90;;;;;;5113780;28;20547;-71
2023/08/03 07:54:00;;;;;;;7.47;2.60;;;19.10;99.90;;;;;;5113740;28;20433;-70
2023/08/03 07:56:26;;;;;;;4.63;2.25;;;19.00;99.90;;;;;;5111514;28;20423;-71
2023/08/03 07:58:51;;;;;;;7.78;3.05;;;19.00;99.90;;;;;;5113068;28;20028;-71
2023/08/03 08:01:19;;;;;;;33.00;4.97;;;19.10;99.90;;;;;;5113170;28;20464;-71
2023/08/03 08:03:45;;;;;;;5.28;2.80;;;19.10;99.90;;;;;;5111860;28;20422;-70
2023/08/03 08:06:13;;;;;;;9.63;2.53;;;19.20;99.90;;;;;;5113484;28;20046;-70
2023/08/03 08:08:39;;;;;;;6.13;2.10;;;19.20;99.90;;;;;;5112450;28;20023;-71
2023/08/03 08:11:05;;;;;;;5.22;1.95;;;19.20;99.90;;;;;;5113365;28;20042;-71
2023/08/03 08:13:32;;;;;;;8.00;1.92;;;19.30;99.90;;;;;;5113364;28;20102;-71
2023/08/03 08:16:09;;;;;;;3.70;1.95;;;19.40;99.90;;;;;;5112274;28;20384;-72
2023/08/03 08:18:36;;;;;;;5.55;1.45;;;19.40;99.90;;;;;;5112212;28;20504;-71
2023/08/03 08:21:04;;;;;;;8.02;1.88;;;19.40;99.90;;;;;;5113054;28;20027;-73
2023/08/03 08:23:30;;;;;;;3.13;1.38;;;19.40;99.90;;;;;;5113157;28;20126;-72
2023/08/03 08:25:59;;;;;;;5.07;1.50;;;19.40;99.90;;;;;;5106850;28;20653;-73
2023/08/03 08:28:26;;;;;;;4.07;1.42;;;19.40;99.90;;;;;;5111145;28;20038;-72
2023/08/03 08:30:52;;;;;;;3.63;1.77;;;19.40;99.90;;;;;;5112945;28;20024;-72
2023/08/03 08:33:19;;;;;;;5.40;1.73;;;19.40;99.90;;;;;;5113180;28;20023;-72
2023/08/03 08:35:46;;;;;;;5.65;2.00;;;19.30;99.90;;;;;;5113202;28;20027;-73
2023/08/03 08:38:12;;;;;;;3.35;1.85;;;19.40;99.90;;;;;;5113095;28;20024;-73
2023/08/03 08:40:40;;;;;;;5.00;1.92;;;19.40;99.90;;;;;;5113134;28;20027;-72
2023/08/03 08:43:06;;;;;;;6.30;1.88;;;19.40;99.90;;;;;;5112978;28;20031;-72
2023/08/03 08:45:33;;;;;;;6.22;2.00;;;19.40;99.90;;;;;;5111785;28;20027;-72
2023/08/03 08:47:59;;;;;;;6.18;1.88;;;19.40;99.90;;;;;;5112838;27;20099;-71
2023/08/03 08:50:25;;;;;;;7.50;2.15;;;19.40;99.90;;;;;;5112791;28;20031;-70
2023/08/03 08:52:52;;;;;;;6.47;2.03;;;19.50;99.90;;;;;;5112984;28;20028;-72
2023/08/03 08:55:24;;;;;;;6.40;1.70;;;19.60;99.90;;;;;;5112721;28;20445;-72
2023/08/03 08:57:52;;;;;;;4.78;1.40;;;19.60;99.90;;;;;;5105994;28;20102;-71
2023/08/03 09:00:19;;;;;;;6.55;1.58;;;19.60;99.90;;;;;;5097800;28;20066;-72
2023/08/03 09:02:45;;;;;;;18.20;3.22;;;19.60;99.90;;;;;;5098720;28;20068;-73
2023/08/03 09:05:19;;;;;;;43.90;7.30;;;19.50;99.90;;;;;;5089810;28;20048;-71
2023/08/03 09:07:58;;;;;;;5.28;1.60;;;19.70;99.90;;;;;;5091605;28;20149;-71
2023/08/03 09:10:24;;;;;;;6.05;1.58;;;19.60;99.90;;;;;;5092418;28;20032;-72
2023/08/03 09:12:50;;;;;;;5.95;2.15;;;19.80;99.90;;;;;;5098631;28;20038;-72
2023/08/03 09:15:16;;;;;;;9.57;1.80;;;19.80;99.90;;;;;;5112235;28;20024;-71
2023/08/03 09:17:44;;;;;;;12.35;2.85;;;20.00;99.90;;;;;;5111282;28;20392;-71
2023/08/03 09:20:27;;;;;;;7.00;2.05;;;20.00;99.90;;;;;;5112037;28;20398;-72
2023/08/03 09:22:52;;;;;;;4.95;1.65;;;20.00;99.90;;;;;;5112550;28;20034;-73
2023/08/03 09:25:18;;;;;;;6.55;2.03;;;20.00;99.90;;;;;;5111945;28;20024;-72
2023/08/03 09:27:49;;;;;;;6.45;1.83;;;20.00;99.90;;;;;;5110997;28;20481;-73
2023/08/03 09:30:15;;;;;;;5.03;1.58;;;20.00;99.90;;;;;;5112255;28;20028;-73
2023/08/03 09:32:41;;;;;;;6.05;1.73;;;20.00;99.90;;;;;;5111929;28;20088;-72
2023/08/03 09:35:23;;;;;;;6.40;1.70;;;20.00;99.90;;;;;;5110982;28;20038;-73
2023/08/03 09:37:50;;;;;;;;;;;20.00;99.90;;;;;;5112495;28;20099;-72
2023/08/03 09:40:17;;;;;;;4.97;1.40;;;20.10;99.90;;;;;;5110251;28;19921;-73
2023/08/03 09:42:44;;;;;;;2.97;1.02;;;20.00;99.90;;;;;;5111901;28;20114;-72
2023/08/03 09:45:11;;;;;;;5.40;1.20;;;19.90;99.90;;;;;;5112802;28;20571;-73
2023/08/03 09:47:38;;;;;;;3.75;1.35;;;19.80;99.90;;;;;;5116419;28;20031;-72
2023/08/03 09:50:04;;;;;;;4.78;1.98;;;19.90;99.90;;;;;;5116423;28;20020;-72
2023/08/03 09:52:31;;;;;;;4.95;1.50;;;20.10;99.90;;;;;;5116570;28;20032;-72
2023/08/03 09:54:57;;;;;;;4.53;1.40;;;20.10;99.90;;;;;;5115248;28;20020;-72
2023/08/03 09:57:24;;;;;;;2.47;1.02;;;20.10;99.90;;;;;;5116288;28;20379;-72
2023/08/03 09:59:55;;;;;;;3.72;1.30;;;20.10;99.90;;;;;;5116052;28;20031;-71
2023/08/03 10:02:24;;;;;;;2.88;1.15;;;20.10;99.90;;;;;;5115376;28;20036;-71
2023/08/03 10:04:55;;;;;;;4.60;1.10;;;20.00;99.90;;;;;;5115975;28;20038;-69
2023/08/03 10:07:25;;;;;;;3.95;1.30;;;20.10;99.90;;;;;;5115979;28;20069;-70
2023/08/03 10:09:56;;;;;;;5.78;1.50;;;19.90;99.90;;;;;;5115899;28;20085;-71
2023/08/03 10:12:30;;;;;;;5.55;2.08;;;20.00;99.90;;;;;;5115914;28;20020;-71
2023/08/03 10:14:58;;;;;;;3.42;1.40;;;20.00;99.90;;;;;;5114640;28;20031;-72
2023/08/03 10:17:24;;;;;;;3.85;1.17;;;19.90;99.90;;;;;;5114892;28;20396;-73
2023/08/03 10:19:51;;;;;;;5.80;1.67;;;20.00;99.90;;;;;;5115019;28;20020;-70
2023/08/03 10:22:17;;;;;;;2.67;1.45;;;20.00;99.90;;;;;;5115849;28;20027;-71
2023/08/03 10:25:17;;;;;;;2.97;1.63;;;20.00;99.90;;;;;;5115702;28;20016;-72
2023/08/03 10:28:14;;;;;;;4.30;1.65;;;20.00;99.90;;;;;;5113859;28;20135;-72
2023/08/03 10:31:05;;;;;;;4.75;1.80;;;19.90;99.90;;;;;;5112944;28;20028;-72
2023/08/03 10:33:51;;;;;;;4.63;1.67;;;19.90;99.90;;;;;;5106966;28;20028;-72
2023/08/03 10:36:29;;;;;;;2.45;1.45;;;19.90;99.90;;;;;;5106375;28;20123;-72
2023/08/03 10:39:18;;;;;;;3.22;1.73;;;20.00;99.90;;;;;;5114982;28;20055;-72
2023/08/03 10:41:51;;;;;;;4.45;1.50;;;20.10;99.90;;;;;;5099462;28;20051;-72
2023/08/03 10:44:20;;;;;;;5.20;1.75;;;19.90;99.90;;;;;;5115426;28;20019;-72
2023/08/03 10:46:48;;;;;;;3.88;1.52;;;19.80;99.90;;;;;;5113158;28;20406;-71
2023/08/03 10:49:20;;;;;;;3.97;1.85;;;19.70;99.90;;;;;;5114333;28;20042;-71
2023/08/03 10:52:16;;;;;;;2.72;1.52;;;19.90;99.90;;;;;;5113846;28;20483;-72
2023/08/03 10:54:42;;;;;;;170.93;26.95;;;19.80;99.90;;;;;;5099912;28;20108;-72
2023/08/03 10:57:18;;;;;;;223.82;28.65;;;19.80;99.90;;;;;;5099528;28;20471;-71
2023/08/03 10:59:45;;;;;;;79.68;13.40;;;19.90;99.90;;;;;;5114316;28;20035;-71
2023/08/03 11:02:14;;;;;;;5.82;1.92;;;20.00;99.90;;;;;;5114771;28;20039;-71
2023/08/03 11:04:41;;;;;;;4.38;1.83;;;20.10;99.90;;;;;;5113555;28;20028;-72
2023/08/03 11:07:09;;;;;;;2.72;1.40;;;20.20;99.90;;;;;;5114842;28;20543;-72
2023/08/03 11:09:35;;;;;;;2.38;1.40;;;20.30;99.90;;;;;;5094087;28;20028;-71
2023/08/03 11:12:00;;;;;;;2.50;1.35;;;20.30;99.90;;;;;;5097038;28;20039;-72
2023/08/03 11:14:29;;;;;;;2.38;1.08;;;20.20;99.90;;;;;;5104378;28;20069;-72
2023/08/03 11:16:55;;;;;;;3.47;1.17;;;20.10;99.90;;;;;;5111425;28;20036;-72
2023/08/03 11:19:24;;;;;;;2.83;1.40;;;20.00;99.90;;;;;;5100399;28;20072;-71
2023/08/03 11:21:50;;;;;;;5.43;1.33;;;19.90;99.90;;;;;;5100127;28;20539;-70
2023/08/03 11:24:15;;;;;;;2.08;1.38;;;20.00;99.90;;;;;;5099264;28;20059;-74
2023/08/03 11:26:42;;;;;;;4.22;1.70;;;20.00;99.90;;;;;;5099350;28;20476;-72
2023/08/03 11:29:09;;;;;;;2.08;1.02;;;20.00;99.90;;;;;;5112819;28;20023;-70
2023/08/03 11:31:35;;;;;;;4.20;1.65;;;19.90;99.90;;;;;;5112445;28;20015;-72
2023/08/03 11:34:00;;;;;;;3.78;1.63;;;19.90;99.90;;;;;;5114327;28;20020;-73
2023/08/03 11:36:26;;;;;;;4.18;2.03;;;19.90;99.90;;;;;;5113434;28;20055;-72
2023/08/03 11:38:52;;;;;;;4.60;1.60;;;20.00;99.90;;;;;;5112010;28;20030;-70
2023/08/03 11:41:21;;;;;;;2.63;1.10;;;20.00;99.90;;;;;;5093798;28;20055;-72
2023/08/03 11:43:47;;;;;;;1.60;1.08;;;20.10;99.90;;;;;;5101289;28;20479;-72
2023/08/03 11:46:13;;;;;;;1.27;1.08;;;20.10;99.90;;;;;;5114255;28;20114;-72
2023/08/03 11:48:45;;;;;;;3.53;1.30;;;20.20;99.90;;;;;;5114064;28;20145;-73
2023/08/03 11:51:11;;;;;;;3.97;1.23;;;20.30;99.90;;;;;;5112244;28;20027;-74
2023/08/03 11:53:38;;;;;;;4.93;1.88;;;20.30;99.90;;;;;;5113805;28;20487;-73
2023/08/03 11:56:04;;;;;;;1.42;1.25;;;20.30;99.90;;;;;;5092807;28;20028;-71
2023/08/03 11:58:30;;;;;;;2.80;1.15;;;20.30;99.90;;;;;;5095592;28;20036;-71
2023/08/03 12:01:01;;;;;;;3.13;1.35;;;20.30;99.90;;;;;;5092966;28;20025;-75
2023/08/03 12:03:34;;;;;;;5.30;1.73;;;20.30;99.90;;;;;;5093394;28;20101;-73
2023/08/03 12:06:10;;;;;;;;;;;20.30;99.90;;;;;;5093951;28;20476;-73
2023/08/03 12:08:42;;;;;;;2.75;1.20;;;20.20;99.90;;;;;;5100915;28;20368;-71
2023/08/03 12:11:08;;;;;;;;;;;20.10;99.90;;;;;;5113496;28;20027;-73
2023/08/03 12:13:33;;;;;;;9.20;1.85;;;20.10;99.90;;;;;;5113144;28;19953;-73
2023/08/03 12:15:59;;;;;;;3.80;1.67;;;20.10;99.90;;;;;;5113589;28;20024;-74
2023/08/03 12:18:25;;;;;;;2.05;1.70;;;19.90;99.90;;;;;;5113349;28;20024;-76
2023/08/03 12:20:51;;;;;;;3.42;1.60;;;19.80;99.90;;;;;;5113411;28;20077;-74
2023/08/03 12:23:18;;;;;;;4.10;1.80;;;19.80;99.90;;;;;;5113492;28;20031;-76
2023/08/03 12:25:44;;;;;;;4.60;1.80;;;19.80;99.90;;;;;;5112795;28;20523;-75
2023/08/03 12:28:10;;;;;;;5.97;1.58;;;19.80;99.90;;;;;;5112573;28;20110;-75
2023/08/03 12:30:36;;;;;;;2.00;1.25;;;19.60;99.90;;;;;;5112965;28;20102;-75
2023/08/03 12:33:02;;;;;;;2.88;1.23;;;19.70;99.90;;;;;;5113253;28;20045;-75
2023/08/03 12:35:28;;;;;;;2.28;1.27;;;19.70;99.90;;;;;;5113159;28;20440;-75
2023/08/03 12:37:53;;;;;;;4.88;1.42;;;19.80;99.90;;;;;;5113095;28;20054;-75
2023/08/03 12:40:19;;;;;;;2.72;1.50;;;19.80;99.90;;;;;;5113246;28;20456;-74
2023/08/03 12:42:45;;;;;;;4.38;1.40;;;19.90;99.90;;;;;;5112674;28;20369;-73
2023/08/03 12:45:11;;;;;;;3.03;1.60;;;20.00;99.90;;;;;;5113020;28;20429;-73